sensor_id;sensor_type;location;lat;lon;timestamp;temperature;humidity
3017;DHT22;1518;52.408;13.060;2023-01-15T00:01:42;18.90;83.60
3017;DHT22;1518;52.408;13.060;2023-01-15T00:04:30;19.00;83.70
3017;DHT22;1518;52.408;13.060;2023-01-15T00:07:20;18.90;83.60
3017;DHT22;1518;52.408;13.060;2023-01-15T00:10:09;18.90;83.70
3017;DHT22;1518;52.408;13.060;2023-01-15T00:12:57;18.90;83.60
3017;DHT22;1518;52.408;13.060;2023-01-15T00:15:45;18.90;83.70
3017;DHT22;1518;52.408;13.060;2023-01-15T00:18:33;18.80;83.70
3017;DHT22;1518;52.408;13.060;2023-01-15T00:21:22;18.90;83.80
3017;DHT22;1518;52.408;13.060;2023-01-15T00:24:12;18.80;83.90
3017;DHT22;1518;52.408;13.060;2023-01-15T00:27:17;18.70;83.90
3017;DHT22;1518;52.408;13.060;2023-01-15T00:30:23;18.70;84.20
3017;DHT22;1518;52.408;13.060;2023-01-15T00:33:11;18.70;84.30
3017;DHT22;1518;52.408;13.060;2023-01-15T00:35:59;18.70;84.30
3017;DHT22;1518;52.408;13.060;2023-01-15T00:38:47;18.80;84.30
3017;DHT22;1518;52.408;13.060;2023-01-15T00:41:37;18.80;84.30
3017;DHT22;1518;52.408;13.060;2023-01-15T00:44:25;18.80;84.40
3017;DHT22;1518;52.408;13.060;2023-01-15T00:47:13;18.90;84.40
3017;DHT22;1518;52.408;13.060;2023-01-15T00:50:01;18.90;84.30
3017;DHT22;1518;52.408;13.060;2023-01-15T00:52:49;18.90;84.20
3017;DHT22;1518;52.408;13.060;2023-01-15T00:55:37;19.00;84.10
3017;DHT22;1518;52.408;13.060;2023-01-15T00:58:26;19.00;84.00
3017;DHT22;1518;52.408;13.060;2023-01-15T01:01:14;19.00;83.80
3017;DHT22;1518;52.408;13.060;2023-01-15T01:04:03;19.10;83.80
3017;DHT22;1518;52.408;13.060;2023-01-15T01:06:51;19.10;83.70
3017;DHT22;1518;52.408;13.060;2023-01-15T01:09:39;19.10;83.70
3017;DHT22;1518;52.408;13.060;2023-01-15T01:12:27;19.10;83.60
3017;DHT22;1518;52.408;13.060;2023-01-15T01:15:16;19.20;83.60
3017;DHT22;1518;52.408;13.060;2023-01-15T01:18:05;19.10;83.60
3017;DHT22;1518;52.408;13.060;2023-01-15T01:20:54;19.10;83.60
3017;DHT22;1518;52.408;13.060;2023-01-15T01:23:42;19.10;83.70
3017;DHT22;1518;52.408;13.060;2023-01-15T01:26:30;19.10;95.90
3017;DHT22;1518;52.408;13.060;2023-01-15T01:29:20;19.10;83.70
3017;DHT22;1518;52.408;13.060;2023-01-15T01:32:09;19.00;83.50
3017;DHT22;1518;52.408;13.060;2023-01-15T01:34:59;19.00;83.50
3017;DHT22;1518;52.408;13.060;2023-01-15T01:37:48;19.10;83.70
3017;DHT22;1518;52.408;13.060;2023-01-15T01:40:37;19.00;83.80
3017;DHT22;1518;52.408;13.060;2023-01-15T01:43:28;18.90;83.80
3017;DHT22;1518;52.408;13.060;2023-01-15T01:46:16;18.80;94.10
3017;DHT22;1518;52.408;13.060;2023-01-15T01:49:09;18.80;84.50
3017;DHT22;1518;52.408;13.060;2023-01-15T01:52:01;18.80;84.50
3017;DHT22;1518;52.408;13.060;2023-01-15T01:54:50;18.80;84.60
3017;DHT22;1518;52.408;13.060;2023-01-15T01:57:39;18.80;84.50
3017;DHT22;1518;52.408;13.060;2023-01-15T02:00:28;18.90;84.50
3017;DHT22;1518;52.408;13.060;2023-01-15T02:03:21;18.90;84.40
3017;DHT22;1518;52.408;13.060;2023-01-15T02:06:12;18.90;84.30
3017;DHT22;1518;52.408;13.060;2023-01-15T02:09:01;19.00;84.30
3017;DHT22;1518;52.408;13.060;2023-01-15T02:11:50;19.00;84.10
3017;DHT22;1518;52.408;13.060;2023-01-15T02:14:47;19.10;84.20
3017;DHT22;1518;52.408;13.060;2023-01-15T02:17:43;19.10;84.10
3017;DHT22;1518;52.408;13.060;2023-01-15T02:20:36;19.10;84.00
3017;DHT22;1518;52.408;13.060;2023-01-15T02:23:50;19.00;84.00
3017;DHT22;1518;52.408;13.060;2023-01-15T02:26:54;19.10;84.00
3017;DHT22;1518;52.408;13.060;2023-01-15T02:29:50;19.10;84.20
3017;DHT22;1518;52.408;13.060;2023-01-15T02:32:44;19.10;84.10
3017;DHT22;1518;52.408;13.060;2023-01-15T02:35:37;19.10;84.30
3017;DHT22;1518;52.408;13.060;2023-01-15T02:38:29;19.10;84.20
3017;DHT22;1518;52.408;13.060;2023-01-15T02:41:24;19.10;84.20
3017;DHT22;1518;52.408;13.060;2023-01-15T02:44:16;19.10;84.20
3017;DHT22;1518;52.408;13.060;2023-01-15T02:47:05;19.10;84.20
3017;DHT22;1518;52.408;13.060;2023-01-15T02:49:57;19.10;85.00
3017;DHT22;1518;52.408;13.060;2023-01-15T02:52:49;19.00;84.30
3017;DHT22;1518;52.408;13.060;2023-01-15T02:55:42;19.00;84.40
3017;DHT22;1518;52.408;13.060;2023-01-15T02:58:33;19.00;84.40
3017;DHT22;1518;52.408;13.060;2023-01-15T03:01:29;19.00;84.70
3017;DHT22;1518;52.408;13.060;2023-01-15T03:04:24;18.90;84.80
3017;DHT22;1518;52.408;13.060;2023-01-15T03:07:18;18.80;84.90
3017;DHT22;1518;52.408;13.060;2023-01-15T03:10:09;18.80;85.00
3017;DHT22;1518;52.408;13.060;2023-01-15T03:13:00;18.80;85.10
3017;DHT22;1518;52.408;13.060;2023-01-15T03:15:58;19.50;85.80
3017;DHT22;1518;52.408;13.060;2023-01-15T03:19:17;18.80;85.10
3017;DHT22;1518;52.408;13.060;2023-01-15T03:22:11;18.80;85.00
3017;DHT22;1518;52.408;13.060;2023-01-15T03:25:02;18.80;85.00
3017;DHT22;1518;52.408;13.060;2023-01-15T03:27:52;18.90;85.10
3017;DHT22;1518;52.408;13.060;2023-01-15T03:30:41;18.90;85.10
3017;DHT22;1518;52.408;13.060;2023-01-15T03:33:29;18.90;85.00
3017;DHT22;1518;52.408;13.060;2023-01-15T03:36:19;19.00;95.90
3017;DHT22;1518;52.408;13.060;2023-01-15T03:39:07;18.90;85.00
3017;DHT22;1518;52.408;13.060;2023-01-15T03:42:02;19.00;85.10
3017;DHT22;1518;52.408;13.060;2023-01-15T03:44:56;19.00;85.10
3017;DHT22;1518;52.408;13.060;2023-01-15T03:47:55;19.00;85.00
3017;DHT22;1518;52.408;13.060;2023-01-15T03:50:49;19.00;84.90
3017;DHT22;1518;52.408;13.060;2023-01-15T03:53:42;19.00;84.90
3017;DHT22;1518;52.408;13.060;2023-01-15T03:56:36;19.00;85.00
3017;DHT22;1518;52.408;13.060;2023-01-15T03:59:31;19.00;85.60
3017;DHT22;1518;52.408;13.060;2023-01-15T04:02:20;19.00;86.10
3017;DHT22;1518;52.408;13.060;2023-01-15T04:05:10;18.90;85.40
3017;DHT22;1518;52.408;13.060;2023-01-15T04:07:59;18.90;85.40
3017;DHT22;1518;52.408;13.060;2023-01-15T04:10:53;18.80;85.20
3017;DHT22;1518;52.408;13.060;2023-01-15T04:13:42;18.80;85.50
3017;DHT22;1518;52.408;13.060;2023-01-15T04:16:31;18.70;97.20
3017;DHT22;1518;52.408;13.060;2023-01-15T04:19:20;18.70;85.70
3017;DHT22;1518;52.408;13.060;2023-01-15T04:22:09;18.80;85.70
3017;DHT22;1518;52.408;13.060;2023-01-15T04:24:57;18.80;85.60
3017;DHT22;1518;52.408;13.060;2023-01-15T04:27:47;18.90;85.50
3017;DHT22;1518;52.408;13.060;2023-01-15T04:30:36;18.90;85.20
3017;DHT22;1518;52.408;13.060;2023-01-15T04:33:24;19.00;85.10
3017;DHT22;1518;52.408;13.060;2023-01-15T04:36:12;18.80;96.50
3017;DHT22;1518;52.408;13.060;2023-01-15T04:39:01;19.00;84.90
3017;DHT22;1518;52.408;13.060;2023-01-15T04:41:49;19.00;84.60
3017;DHT22;1518;52.408;13.060;2023-01-15T04:44:56;19.00;84.50
3017;DHT22;1518;52.408;13.060;2023-01-15T04:47:44;19.00;84.40
3017;DHT22;1518;52.408;13.060;2023-01-15T04:50:32;19.00;84.10
3017;DHT22;1518;52.408;13.060;2023-01-15T04:53:20;19.00;83.90
3017;DHT22;1518;52.408;13.060;2023-01-15T04:56:09;19.00;83.40
3017;DHT22;1518;52.408;13.060;2023-01-15T04:58:59;19.00;82.90
3017;DHT22;1518;52.408;13.060;2023-01-15T05:01:49;19.00;83.50
3017;DHT22;1518;52.408;13.060;2023-01-15T05:04:50;19.00;82.20
3017;DHT22;1518;52.408;13.060;2023-01-15T05:07:38;18.90;81.70
3017;DHT22;1518;52.408;13.060;2023-01-15T05:10:26;18.90;83.50
3017;DHT22;1518;52.408;13.060;2023-01-15T05:13:14;18.80;83.60
3017;DHT22;1518;52.408;13.060;2023-01-15T05:16:13;18.80;82.60
3017;DHT22;1518;52.408;13.060;2023-01-15T05:19:04;18.80;83.30
3017;DHT22;1518;52.408;13.060;2023-01-15T05:21:54;18.70;82.70
3017;DHT22;1518;52.408;13.060;2023-01-15T05:24:42;18.70;84.30
3017;DHT22;1518;52.408;13.060;2023-01-15T05:27:30;18.60;84.60
3017;DHT22;1518;52.408;13.060;2023-01-15T05:30:18;18.60;84.70
3017;DHT22;1518;52.408;13.060;2023-01-15T05:33:06;18.60;84.90
3017;DHT22;1518;52.408;13.060;2023-01-15T05:36:00;18.60;85.00
3017;DHT22;1518;52.408;13.060;2023-01-15T05:38:48;18.60;84.90
3017;DHT22;1518;52.408;13.060;2023-01-15T05:41:36;18.60;84.90
3017;DHT22;1518;52.408;13.060;2023-01-15T05:44:37;18.70;84.80
3017;DHT22;1518;52.408;13.060;2023-01-15T05:47:25;18.70;84.70
3017;DHT22;1518;52.408;13.060;2023-01-15T05:50:13;18.80;84.60
3017;DHT22;1518;52.408;13.060;2023-01-15T05:53:02;18.60;84.40
3017;DHT22;1518;52.408;13.060;2023-01-15T05:55:50;18.80;84.50
3017;DHT22;1518;52.408;13.060;2023-01-15T05:58:38;18.80;84.40
3017;DHT22;1518;52.408;13.060;2023-01-15T06:01:26;18.80;84.30
3017;DHT22;1518;52.408;13.060;2023-01-15T06:04:15;18.80;84.20
3017;DHT22;1518;52.408;13.060;2023-01-15T06:07:06;18.80;84.70
3017;DHT22;1518;52.408;13.060;2023-01-15T06:09:56;18.90;83.90
3017;DHT22;1518;52.408;13.060;2023-01-15T06:12:44;19.00;83.20
3017;DHT22;1518;52.408;13.060;2023-01-15T06:15:33;18.90;83.80
3017;DHT22;1518;52.408;13.060;2023-01-15T06:18:22;18.90;83.70
3017;DHT22;1518;52.408;13.060;2023-01-15T06:21:11;18.90;83.70
3017;DHT22;1518;52.408;13.060;2023-01-15T06:24:00;18.90;83.70
3017;DHT22;1518;52.408;13.060;2023-01-15T06:26:50;18.90;83.80
3017;DHT22;1518;52.408;13.060;2023-01-15T06:29:38;18.90;83.80
3017;DHT22;1518;52.408;13.060;2023-01-15T06:32:26;18.80;83.70
3017;DHT22;1518;52.408;13.060;2023-01-15T06:35:14;18.80;83.80
3017;DHT22;1518;52.408;13.060;2023-01-15T06:38:02;18.70;82.70
3017;DHT22;1518;52.408;13.060;2023-01-15T06:40:50;18.70;83.00
3017;DHT22;1518;52.408;13.060;2023-01-15T06:43:40;18.60;84.00
3017;DHT22;1518;52.408;13.060;2023-01-15T06:46:47;18.60;84.40
3017;DHT22;1518;52.408;13.060;2023-01-15T06:49:55;18.50;84.40
3017;DHT22;1518;52.408;13.060;2023-01-15T06:52:44;18.50;84.50
3017;DHT22;1518;52.408;13.060;2023-01-15T06:55:32;18.50;84.50
3017;DHT22;1518;52.408;13.060;2023-01-15T06:58:20;18.50;84.60
3017;DHT22;1518;52.408;13.060;2023-01-15T07:01:11;18.50;84.50
3017;DHT22;1518;52.408;13.060;2023-01-15T07:04:00;18.50;84.40
3017;DHT22;1518;52.408;13.060;2023-01-15T07:06:48;18.60;84.50
3017;DHT22;1518;52.408;13.060;2023-01-15T07:09:36;18.60;84.40
3017;DHT22;1518;52.408;13.060;2023-01-15T07:12:24;18.60;84.30
3017;DHT22;1518;52.408;13.060;2023-01-15T07:15:13;18.60;84.20
3017;DHT22;1518;52.408;13.060;2023-01-15T07:18:02;18.70;84.10
3017;DHT22;1518;52.408;13.060;2023-01-15T07:20:53;18.70;83.90
3017;DHT22;1518;52.408;13.060;2023-01-15T07:23:42;18.80;83.80
3017;DHT22;1518;52.408;13.060;2023-01-15T07:26:30;18.70;96.30
3017;DHT22;1518;52.408;13.060;2023-01-15T07:29:18;18.80;83.80
3017;DHT22;1518;52.408;13.060;2023-01-15T07:32:06;18.80;83.70
3017;DHT22;1518;52.408;13.060;2023-01-15T07:34:55;18.70;83.60
3017;DHT22;1518;52.408;13.060;2023-01-15T07:37:44;18.70;83.60
3017;DHT22;1518;52.408;13.060;2023-01-15T07:40:32;18.70;83.60
3017;DHT22;1518;52.408;13.060;2023-01-15T07:43:20;18.70;83.20
3017;DHT22;1518;52.408;13.060;2023-01-15T07:46:25;18.80;96.50
3017;DHT22;1518;52.408;13.060;2023-01-15T07:49:31;18.60;83.80
3017;DHT22;1518;52.408;13.060;2023-01-15T07:52:36;18.50;84.10
3017;DHT22;1518;52.408;13.060;2023-01-15T07:55:24;18.50;84.30
3017;DHT22;1518;52.408;13.060;2023-01-15T07:58:12;18.50;84.30
3017;DHT22;1518;52.408;13.060;2023-01-15T08:01:00;18.50;84.40
3017;DHT22;1518;52.408;13.060;2023-01-15T08:03:48;18.50;84.40
3017;DHT22;1518;52.408;13.060;2023-01-15T08:06:37;18.60;84.40
3017;DHT22;1518;52.408;13.060;2023-01-15T08:09:26;18.60;84.30
3017;DHT22;1518;52.408;13.060;2023-01-15T08:12:15;18.70;84.10
3017;DHT22;1518;52.408;13.060;2023-01-15T08:15:21;18.70;83.90
3017;DHT22;1518;52.408;13.060;2023-01-15T08:18:10;18.80;83.90
3017;DHT22;1518;52.408;13.060;2023-01-15T08:20:58;18.80;83.70
3017;DHT22;1518;52.408;13.060;2023-01-15T08:23:46;18.90;83.60
3017;DHT22;1518;52.408;13.060;2023-01-15T08:26:37;18.90;83.40
3017;DHT22;1518;52.408;13.060;2023-01-15T08:29:26;18.90;83.30
3017;DHT22;1518;52.408;13.060;2023-01-15T08:32:14;19.00;83.30
3017;DHT22;1518;52.408;13.060;2023-01-15T08:35:03;18.90;83.10
3017;DHT22;1518;52.408;13.060;2023-01-15T08:37:51;19.00;83.00
3017;DHT22;1518;52.408;13.060;2023-01-15T08:40:39;19.00;82.90
3017;DHT22;1518;52.408;13.060;2023-01-15T08:43:42;19.00;82.70
3017;DHT22;1518;52.408;13.060;2023-01-15T08:46:31;19.20;96.20
3017;DHT22;1518;52.408;13.060;2023-01-15T08:49:20;18.90;82.30
3017;DHT22;1518;52.408;13.060;2023-01-15T08:52:08;18.90;82.10
3017;DHT22;1518;52.408;13.060;2023-01-15T08:54:56;18.90;81.40
3017;DHT22;1518;52.408;13.060;2023-01-15T08:57:44;18.90;81.20
3017;DHT22;1518;52.408;13.060;2023-01-15T09:00:34;18.80;81.10
3017;DHT22;1518;52.408;13.060;2023-01-15T09:03:22;18.80;81.20
3017;DHT22;1518;52.408;13.060;2023-01-15T09:06:10;18.70;82.10
3017;DHT22;1518;52.408;13.060;2023-01-15T09:08:59;18.70;81.70
3017;DHT22;1518;52.408;13.060;2023-01-15T09:11:47;18.60;83.00
3017;DHT22;1518;52.408;13.060;2023-01-15T09:14:35;18.50;83.50
3017;DHT22;1518;52.408;13.060;2023-01-15T09:17:45;18.50;83.70
3017;DHT22;1518;52.408;13.060;2023-01-15T09:20:33;18.60;83.80
3017;DHT22;1518;52.408;13.060;2023-01-15T09:23:21;18.60;83.60
3017;DHT22;1518;52.408;13.060;2023-01-15T09:26:26;18.70;83.60
3017;DHT22;1518;52.408;13.060;2023-01-15T09:29:14;18.80;83.50
3017;DHT22;1518;52.408;13.060;2023-01-15T09:32:02;18.80;83.30
3017;DHT22;1518;52.408;13.060;2023-01-15T09:34:52;18.90;83.20
3017;DHT22;1518;52.408;13.060;2023-01-15T09:37:40;18.90;83.00
3017;DHT22;1518;52.408;13.060;2023-01-15T09:40:39;19.00;82.90
3017;DHT22;1518;52.408;13.060;2023-01-15T09:43:40;19.00;82.70
3017;DHT22;1518;52.408;13.060;2023-01-15T09:46:41;19.00;82.60
3017;DHT22;1518;52.408;13.060;2023-01-15T09:49:45;19.10;82.40
3017;DHT22;1518;52.408;13.060;2023-01-15T09:52:54;19.00;82.30
3017;DHT22;1518;52.408;13.060;2023-01-15T09:55:46;19.10;82.20
3017;DHT22;1518;52.408;13.060;2023-01-15T09:58:37;19.10;82.20
3017;DHT22;1518;52.408;13.060;2023-01-15T10:01:28;19.10;82.50
3017;DHT22;1518;52.408;13.060;2023-01-15T10:04:27;19.00;81.90
3017;DHT22;1518;52.408;13.060;2023-01-15T10:07:24;19.10;81.90
3017;DHT22;1518;52.408;13.060;2023-01-15T10:10:18;19.10;81.50
3017;DHT22;1518;52.408;13.060;2023-01-15T10:13:15;19.10;81.70
3017;DHT22;1518;52.408;13.060;2023-01-15T10:16:05;19.10;81.70
3017;DHT22;1518;52.408;13.060;2023-01-15T10:18:54;19.10;82.00
3017;DHT22;1518;52.408;13.060;2023-01-15T10:21:49;19.00;81.80
3017;DHT22;1518;52.408;13.060;2023-01-15T10:24:44;19.00;81.90
3017;DHT22;1518;52.408;13.060;2023-01-15T10:27:35;19.00;82.00
3017;DHT22;1518;52.408;13.060;2023-01-15T10:30:31;18.90;82.00
3017;DHT22;1518;52.408;13.060;2023-01-15T10:33:36;18.90;82.00
3017;DHT22;1518;52.408;13.060;2023-01-15T10:36:29;18.80;95.70
3017;DHT22;1518;52.408;13.060;2023-01-15T10:39:24;18.80;82.30
3017;DHT22;1518;52.408;13.060;2023-01-15T10:42:26;18.70;82.60
3017;DHT22;1518;52.408;13.060;2023-01-15T10:45:21;18.60;82.70
3017;DHT22;1518;52.408;13.060;2023-01-15T10:48:14;18.70;82.90
3017;DHT22;1518;52.408;13.060;2023-01-15T10:51:13;18.60;82.90
3017;DHT22;1518;52.408;13.060;2023-01-15T10:54:05;18.70;82.90
3017;DHT22;1518;52.408;13.060;2023-01-15T10:56:58;18.80;82.80
3017;DHT22;1518;52.408;13.060;2023-01-15T10:59:51;18.70;83.30
3017;DHT22;1518;52.408;13.060;2023-01-15T11:02:48;18.80;82.60
3017;DHT22;1518;52.408;13.060;2023-01-15T11:05:37;18.80;82.40
3017;DHT22;1518;52.408;13.060;2023-01-15T11:08:26;18.90;82.40
3017;DHT22;1518;52.408;13.060;2023-01-15T11:11:39;18.90;82.30
3017;DHT22;1518;52.408;13.060;2023-01-15T11:14:52;19.00;82.20
3017;DHT22;1518;52.408;13.060;2023-01-15T11:18:01;19.00;82.10
3017;DHT22;1518;52.408;13.060;2023-01-15T11:21:11;19.10;81.90
3017;DHT22;1518;52.408;13.060;2023-01-15T11:24:00;19.00;81.70
3017;DHT22;1518;52.408;13.060;2023-01-15T11:26:50;19.10;81.70
3017;DHT22;1518;52.408;13.060;2023-01-15T11:29:43;19.10;81.60
3017;DHT22;1518;52.408;13.060;2023-01-15T11:32:33;19.10;81.30
3017;DHT22;1518;52.408;13.060;2023-01-15T11:35:22;19.20;81.20
3017;DHT22;1518;52.408;13.060;2023-01-15T11:38:13;19.20;81.10
3017;DHT22;1518;52.408;13.060;2023-01-15T11:41:02;19.20;80.90
3017;DHT22;1518;52.408;13.060;2023-01-15T11:43:55;19.10;80.90
3017;DHT22;1518;52.408;13.060;2023-01-15T11:47:03;19.10;80.70
3017;DHT22;1518;52.408;13.060;2023-01-15T11:50:16;19.00;79.60
3017;DHT22;1518;52.408;13.060;2023-01-15T11:53:26;19.00;79.80
3017;DHT22;1518;52.408;13.060;2023-01-15T11:56:17;18.80;94.20
3017;DHT22;1518;52.408;13.060;2023-01-15T11:59:10;18.80;79.60
3017;DHT22;1518;52.408;13.060;2023-01-15T12:02:00;18.80;80.20
3017;DHT22;1518;52.408;13.060;2023-01-15T12:04:51;18.80;81.60
3017;DHT22;1518;52.408;13.060;2023-01-15T12:07:40;18.70;82.00
3017;DHT22;1518;52.408;13.060;2023-01-15T12:10:36;18.60;82.20
3017;DHT22;1518;52.408;13.060;2023-01-15T12:13:48;18.60;82.20
3017;DHT22;1518;52.408;13.060;2023-01-15T12:16:41;18.70;82.20
3017;DHT22;1518;52.408;13.060;2023-01-15T12:19:38;18.80;82.30
3017;DHT22;1518;52.408;13.060;2023-01-15T12:22:40;18.80;82.10
3017;DHT22;1518;52.408;13.060;2023-01-15T12:25:40;18.80;81.90
3017;DHT22;1518;52.408;13.060;2023-01-15T12:28:31;18.90;81.80
3017;DHT22;1518;52.408;13.060;2023-01-15T12:31:24;18.90;81.80
3017;DHT22;1518;52.408;13.060;2023-01-15T12:34:19;18.90;81.70
3017;DHT22;1518;52.408;13.060;2023-01-15T12:37:12;19.00;81.60
3017;DHT22;1518;52.408;13.060;2023-01-15T12:40:17;19.00;81.40
3017;DHT22;1518;52.408;13.060;2023-01-15T12:43:13;19.00;81.40
3017;DHT22;1518;52.408;13.060;2023-01-15T12:46:24;19.00;92.80
3017;DHT22;1518;52.408;13.060;2023-01-15T12:49:27;19.00;81.20
3017;DHT22;1518;52.408;13.060;2023-01-15T12:52:21;18.90;81.10
3017;DHT22;1518;52.408;13.060;2023-01-15T12:55:14;18.90;81.00
3017;DHT22;1518;52.408;13.060;2023-01-15T12:58:07;19.00;80.90
3017;DHT22;1518;52.408;13.060;2023-01-15T13:01:04;19.00;80.90
3017;DHT22;1518;52.408;13.060;2023-01-15T13:04:04;19.00;81.00
3017;DHT22;1518;52.408;13.060;2023-01-15T13:06:57;19.00;80.90
3017;DHT22;1518;52.408;13.060;2023-01-15T13:09:52;18.90;80.80
3017;DHT22;1518;52.408;13.060;2023-01-15T13:12:42;19.00;80.80
3017;DHT22;1518;52.408;13.060;2023-01-15T13:15:33;18.20;80.10
3017;DHT22;1518;52.408;13.060;2023-01-15T13:18:32;18.80;80.80
3017;DHT22;1518;52.408;13.060;2023-01-15T13:21:23;18.80;81.00
3017;DHT22;1518;52.408;13.060;2023-01-15T13:24:27;18.70;81.40
3017;DHT22;1518;52.408;13.060;2023-01-15T13:27:29;18.70;81.60
3017;DHT22;1518;52.408;13.060;2023-01-15T13:30:39;18.70;81.70
3017;DHT22;1518;52.408;13.060;2023-01-15T13:33:38;18.70;81.70
3017;DHT22;1518;52.408;13.060;2023-01-15T13:36:32;18.70;95.10
3017;DHT22;1518;52.408;13.060;2023-01-15T13:39:26;18.70;81.70
3017;DHT22;1518;52.408;13.060;2023-01-15T13:42:20;18.70;81.60
3017;DHT22;1518;52.408;13.060;2023-01-15T13:45:33;18.80;81.60
3017;DHT22;1518;52.408;13.060;2023-01-15T13:48:28;18.70;81.40
3017;DHT22;1518;52.408;13.060;2023-01-15T13:51:26;18.90;81.50
3017;DHT22;1518;52.408;13.060;2023-01-15T13:54:18;18.90;81.30
3017;DHT22;1518;52.408;13.060;2023-01-15T13:57:08;18.90;81.20
3017;DHT22;1518;52.408;13.060;2023-01-15T13:59:56;19.00;81.20
3017;DHT22;1518;52.408;13.060;2023-01-15T14:02:51;19.00;80.90
3017;DHT22;1518;52.408;13.060;2023-01-15T14:05:39;18.90;80.80
3017;DHT22;1518;52.408;13.060;2023-01-15T14:08:38;19.00;80.80
3017;DHT22;1518;52.408;13.060;2023-01-15T14:11:34;19.10;80.70
3017;DHT22;1518;52.408;13.060;2023-01-15T14:14:47;19.00;80.40
3017;DHT22;1518;52.408;13.060;2023-01-15T14:18:04;19.00;80.10
3017;DHT22;1518;52.408;13.060;2023-01-15T14:21:10;19.10;80.30
3017;DHT22;1518;52.408;13.060;2023-01-15T14:24:13;19.00;80.00
3017;DHT22;1518;52.408;13.060;2023-01-15T14:27:10;19.00;79.80
3017;DHT22;1518;52.408;13.060;2023-01-15T14:30:12;18.90;79.10
3017;DHT22;1518;52.408;13.060;2023-01-15T14:33:14;18.90;79.20
3017;DHT22;1518;52.408;13.060;2023-01-15T14:36:10;18.90;79.30
3017;DHT22;1518;52.408;13.060;2023-01-15T14:39:02;18.80;79.40
3017;DHT22;1518;52.408;13.060;2023-01-15T14:41:58;18.70;80.50
3017;DHT22;1518;52.408;13.060;2023-01-15T14:45:07;18.60;80.90
3017;DHT22;1518;52.408;13.060;2023-01-15T14:47:57;18.60;81.10
3017;DHT22;1518;52.408;13.060;2023-01-15T14:50:46;18.60;81.00
3017;DHT22;1518;52.408;13.060;2023-01-15T14:53:41;18.60;81.20
3017;DHT22;1518;52.408;13.060;2023-01-15T14:56:34;18.70;94.90
3017;DHT22;1518;52.408;13.060;2023-01-15T14:59:26;18.70;81.10
3017;DHT22;1518;52.408;13.060;2023-01-15T15:02:20;18.70;81.00
3017;DHT22;1518;52.408;13.060;2023-01-15T15:05:13;18.70;80.90
3017;DHT22;1518;52.408;13.060;2023-01-15T15:08:03;18.70;80.70
3017;DHT22;1518;52.408;13.060;2023-01-15T15:10:53;18.80;80.50
3017;DHT22;1518;52.408;13.060;2023-01-15T15:13:45;18.80;80.50
3017;DHT22;1518;52.408;13.060;2023-01-15T15:16:41;18.80;80.40
3017;DHT22;1518;52.408;13.060;2023-01-15T15:19:34;18.80;80.20
3017;DHT22;1518;52.408;13.060;2023-01-15T15:22:25;18.80;80.00
3017;DHT22;1518;52.408;13.060;2023-01-15T15:25:21;18.80;79.90
3017;DHT22;1518;52.408;13.060;2023-01-15T15:28:10;18.90;79.90
3017;DHT22;1518;52.408;13.060;2023-01-15T15:30:59;18.90;79.10
3017;DHT22;1518;52.408;13.060;2023-01-15T15:33:49;18.90;78.70
3017;DHT22;1518;52.408;13.060;2023-01-15T15:36:37;18.80;79.20
3017;DHT22;1518;52.408;13.060;2023-01-15T15:39:28;18.90;79.50
3017;DHT22;1518;52.408;13.060;2023-01-15T15:42:23;18.90;79.50
3017;DHT22;1518;52.408;13.060;2023-01-15T15:45:30;18.80;79.30
3017;DHT22;1518;52.408;13.060;2023-01-15T15:48:36;18.80;79.30
3017;DHT22;1518;52.408;13.060;2023-01-15T15:51:35;18.70;80.00
3017;DHT22;1518;52.408;13.060;2023-01-15T15:54:25;18.70;79.40
3017;DHT22;1518;52.408;13.060;2023-01-15T15:57:16;18.60;79.00
3017;DHT22;1518;52.408;13.060;2023-01-15T16:00:16;18.60;79.90
3017;DHT22;1518;52.408;13.060;2023-01-15T16:03:14;18.50;80.10
3017;DHT22;1518;52.408;13.060;2023-01-15T16:06:05;18.50;80.30
3017;DHT22;1518;52.408;13.060;2023-01-15T16:08:56;18.50;80.40
3017;DHT22;1518;52.408;13.060;2023-01-15T16:11:48;18.50;80.50
3017;DHT22;1518;52.408;13.060;2023-01-15T16:14:38;18.60;80.40
3017;DHT22;1518;52.408;13.060;2023-01-15T16:17:27;18.70;80.40
3017;DHT22;1518;52.408;13.060;2023-01-15T16:20:17;18.60;80.00
3017;DHT22;1518;52.408;13.060;2023-01-15T16:23:18;18.80;80.00
3017;DHT22;1518;52.408;13.060;2023-01-15T16:26:12;18.80;79.90
3017;DHT22;1518;52.408;13.060;2023-01-15T16:29:03;18.70;91.70
3017;DHT22;1518;52.408;13.060;2023-01-15T16:31:52;18.80;79.60
3017;DHT22;1518;52.408;13.060;2023-01-15T16:34:43;18.90;79.40
3017;DHT22;1518;52.408;13.060;2023-01-15T16:37:31;19.00;79.50
3017;DHT22;1518;52.408;13.060;2023-01-15T16:40:25;19.00;79.20
3017;DHT22;1518;52.408;13.060;2023-01-15T16:43:18;19.00;78.90
3017;DHT22;1518;52.408;13.060;2023-01-15T16:46:15;19.10;79.30
3017;DHT22;1518;52.408;13.060;2023-01-15T16:49:18;19.00;78.90
3017;DHT22;1518;52.408;13.060;2023-01-15T16:52:35;19.00;78.70
3017;DHT22;1518;52.408;13.060;2023-01-15T16:55:40;19.00;78.50
3017;DHT22;1518;52.408;13.060;2023-01-15T16:58:35;19.00;78.40
3017;DHT22;1518;52.408;13.060;2023-01-15T17:01:32;18.90;77.70
3017;DHT22;1518;52.408;13.060;2023-01-15T17:04:27;18.90;77.40
3017;DHT22;1518;52.408;13.060;2023-01-15T17:07:17;18.90;77.70
3017;DHT22;1518;52.408;13.060;2023-01-15T17:10:18;18.90;76.70
3017;DHT22;1518;52.408;13.060;2023-01-15T17:13:15;18.80;78.10
3017;DHT22;1518;52.408;13.060;2023-01-15T17:16:15;18.80;78.50
3017;DHT22;1518;52.408;13.060;2023-01-15T17:19:05;18.70;78.40
3017;DHT22;1518;52.408;13.060;2023-01-15T17:21:54;18.70;78.70
3017;DHT22;1518;52.408;13.060;2023-01-15T17:24:46;18.60;78.60
3017;DHT22;1518;52.408;13.060;2023-01-15T17:27:34;18.60;78.80
3017;DHT22;1518;52.408;13.060;2023-01-15T17:30:23;18.50;79.20
3017;DHT22;1518;52.408;13.060;2023-01-15T17:33:18;18.40;79.40
3017;DHT22;1518;52.408;13.060;2023-01-15T17:36:08;18.50;79.60
3017;DHT22;1518;52.408;13.060;2023-01-15T17:38:56;18.60;80.40
3017;DHT22;1518;52.408;13.060;2023-01-15T17:41:44;18.50;79.50
3017;DHT22;1518;52.408;13.060;2023-01-15T17:44:33;18.50;79.30
3017;DHT22;1518;52.408;13.060;2023-01-15T17:47:21;18.50;79.20
3017;DHT22;1518;52.408;13.060;2023-01-15T17:50:11;18.50;79.30
3017;DHT22;1518;52.408;13.060;2023-01-15T17:53:00;18.60;79.20
3017;DHT22;1518;52.408;13.060;2023-01-15T17:55:48;18.60;79.10
3017;DHT22;1518;52.408;13.060;2023-01-15T17:58:54;18.50;78.60
3017;DHT22;1518;52.408;13.060;2023-01-15T18:02:22;18.60;78.70
3017;DHT22;1518;52.408;13.060;2023-01-15T18:05:30;18.60;78.00
3017;DHT22;1518;52.408;13.060;2023-01-15T18:08:21;18.60;78.30
3017;DHT22;1518;52.408;13.060;2023-01-15T18:11:09;18.60;78.40
3017;DHT22;1518;52.408;13.060;2023-01-15T18:13:57;18.60;78.40
3017;DHT22;1518;52.408;13.060;2023-01-15T18:16:45;18.60;94.00
3017;DHT22;1518;52.408;13.060;2023-01-15T18:19:33;18.60;78.30
3017;DHT22;1518;52.408;13.060;2023-01-15T18:22:23;18.60;78.30
3017;DHT22;1518;52.408;13.060;2023-01-15T18:25:11;18.50;78.30
3017;DHT22;1518;52.408;13.060;2023-01-15T18:27:59;18.50;78.70
3017;DHT22;1518;52.408;13.060;2023-01-15T18:30:47;18.40;79.00